createdAt,value
2017-04-22T00:00:35.137Z,65.7
2017-04-22T00:01:37.981Z,65.9
2017-04-22T00:02:40.735Z,65.9
2017-04-22T00:03:43.384Z,66.1
2017-04-22T00:04:45.730Z,66.1
2017-04-22T00:05:48.578Z,66.1
2017-04-22T00:06:50.921Z,66.1
2017-04-22T00:07:53.765Z,66.2
2017-04-22T00:08:56.784Z,66.3
2017-04-22T00:09:59.130Z,66.5
2017-04-22T00:11:01.855Z,66.3
2017-04-22T00:12:04.305Z,66.5
2017-04-22T00:14:10.398Z,66.6
2017-04-22T00:15:12.739Z,66.7
2017-04-22T00:16:15.316Z,66.8
2017-04-22T00:17:18.161Z,66.6
2017-04-22T00:18:20.505Z,66.5
2017-04-22T00:19:23.609Z,66.6
2017-04-22T00:20:25.821Z,66.7
2017-04-22T00:21:28.668Z,66.8
2017-04-22T00:22:31.435Z,67.1
2017-04-22T00:23:33.641Z,67.1
2017-04-22T00:24:36.739Z,67.1
2017-04-22T00:25:39.084Z,67.6
2017-04-22T00:26:41.934Z,68.2
2017-04-22T00:27:44.646Z,68.7
2017-04-22T00:28:47.502Z,69.2
2017-04-22T00:29:50.517Z,69.5
2017-04-22T00:30:52.861Z,70.1
2017-04-22T00:31:55.201Z,69.5
2017-04-22T00:34:00.825Z,70.1
2017-04-22T00:35:03.334Z,69.9
2017-04-22T00:36:06.180Z,70.2
2017-04-22T00:37:08.898Z,70.1
2017-04-22T00:38:12.183Z,70
2017-04-22T00:39:13.898Z,69.5
2017-04-22T00:40:17.051Z,70.3
2017-04-22T00:41:19.392Z,70.2
2017-04-22T00:42:22.244Z,69.1
2017-04-22T00:43:24.589Z,69.6
2017-04-22T00:44:27.455Z,70.2
2017-04-22T00:45:30.558Z,69.5
2017-04-22T00:46:32.954Z,68.8
2017-04-22T00:47:35.353Z,69.1
2017-04-22T00:48:38.199Z,69
2017-04-22T00:49:40.538Z,68.5
2017-04-22T00:50:43.653Z,68.5
2017-04-22T00:51:46.003Z,68.8
2017-04-22T00:52:48.725Z,69.2
2017-04-22T00:53:51.575Z,70.1
2017-04-22T00:54:53.918Z,69.9
2017-04-22T00:55:57.026Z,69.9
2017-04-22T00:56:59.375Z,70
2017-04-22T00:58:02.251Z,70.7
2017-04-22T00:59:04.599Z,70.9
2017-04-22T01:00:07.507Z,70.7
2017-04-22T01:01:10.606Z,70.8
2017-04-22T01:02:12.684Z,71
2017-04-22T01:03:15.528Z,70.7
2017-04-22T01:04:17.871Z,71.1
2017-04-22T01:05:20.721Z,71.1
2017-04-22T01:06:23.818Z,71.8
2017-04-22T01:07:26.158Z,71.2
2017-04-22T01:08:29.033Z,71.3
2017-04-22T01:09:31.246Z,71.2
2017-04-22T01:11:37.318Z,72.1
2017-04-22T01:12:39.665Z,70.6
2017-04-22T01:13:42.003Z,70.9
2017-04-22T01:14:44.856Z,71.1
2017-04-22T01:15:47.206Z,71.2
2017-04-22T01:16:50.220Z,71.3
2017-04-22T01:17:52.569Z,71.2
2017-04-22T01:18:55.418Z,71
2017-04-22T01:19:58.270Z,71
2017-04-22T01:21:00.636Z,71.1
2017-04-22T01:22:03.625Z,71.3
2017-04-22T01:23:05.971Z,71.5
2017-04-22T01:24:08.820Z,70.5
2017-04-22T01:25:11.665Z,70.8
2017-04-22T01:26:14.009Z,70.3
2017-04-22T01:27:17.400Z,70.2
2017-04-22T01:28:19.234Z,71.1
2017-04-22T01:29:22.079Z,70.4
2017-04-22T01:30:25.488Z,70.7
2017-04-22T01:31:27.196Z,71
2017-04-22T01:32:30.344Z,71.5
2017-04-22T01:33:32.983Z,71.6
2017-04-22T01:34:35.305Z,70.4
2017-04-22T01:35:38.018Z,71.1
2017-04-22T01:36:40.863Z,70.8
2017-04-22T01:37:43.514Z,71.7
2017-04-22T01:38:46.430Z,70.8
2017-04-22T01:39:48.773Z,71.7
2017-04-22T01:40:51.640Z,71.5
2017-04-22T01:41:53.992Z,72.2
2017-04-22T01:42:57.088Z,71.8
2017-04-22T01:43:59.298Z,71.3
2017-04-22T01:45:02.009Z,71.1
2017-04-22T01:47:07.257Z,71.1
2017-04-22T01:49:12.776Z,71.1
2017-04-22T01:50:15.351Z,71.4
2017-04-22T01:51:18.197Z,71.5
2017-04-22T01:52:20.542Z,70.6
2017-04-22T01:53:23.395Z,71
2017-04-22T01:54:26.363Z,70.3
2017-04-22T01:55:28.567Z,70
2017-04-22T01:56:31.410Z,70.5
2017-04-22T01:57:34.124Z,71.3
2017-04-22T01:58:36.832Z,71.1
2017-04-22T01:59:39.491Z,70.9
2017-04-22T02:00:41.906Z,70.7
2017-04-22T02:01:44.749Z,70.2
2017-04-22T02:02:47.101Z,71.1
2017-04-22T02:03:49.954Z,71.1
2017-04-22T02:04:52.977Z,71.1
2017-04-22T02:05:55.316Z,70.6
2017-04-22T02:06:58.030Z,70.7
2017-04-22T02:08:00.878Z,70.2
2017-04-22T02:09:03.211Z,70.3
2017-04-22T02:10:06.299Z,69.8
2017-04-22T02:11:08.436Z,70.3
2017-04-22T02:12:11.681Z,70.5
2017-04-22T02:13:14.022Z,70.3
2017-04-22T02:14:16.864Z,70.4
2017-04-22T02:15:19.372Z,70.4
2017-04-22T02:16:21.707Z,70.5
2017-04-22T02:17:24.548Z,70.3
2017-04-22T02:18:27.390Z,70.2
2017-04-22T02:19:29.735Z,70.5
2017-04-22T02:20:32.876Z,70.8
2017-04-22T02:21:35.221Z,71.2
2017-04-22T02:22:38.063Z,70.6
2017-04-22T02:23:40.398Z,71.2
2017-04-22T02:24:43.241Z,71.9
2017-04-22T02:26:48.905Z,72
2017-04-22T02:27:51.308Z,72.4
2017-04-22T02:28:53.509Z,73
2017-04-22T02:29:56.713Z,73.1
2017-04-22T02:30:59.055Z,73.7
2017-04-22T02:32:02.194Z,74.2
2017-04-22T02:33:04.530Z,75.6
2017-04-22T02:34:07.367Z,76.8
2017-04-22T02:35:10.075Z,78.3
2017-04-22T02:36:12.280Z,79.8
2017-04-22T02:37:15.245Z,80.5
2017-04-22T02:38:17.583Z,81.4
2017-04-22T02:39:20.440Z,82.2
2017-04-22T02:40:23.278Z,81.2
2017-04-22T02:41:25.617Z,79.8
2017-04-22T02:42:28.755Z,81.2
2017-04-22T02:43:31.091Z,79.6
2017-04-22T02:44:33.795Z,80.8
2017-04-22T02:45:36.149Z,80.5
2017-04-22T02:46:38.988Z,80.4
2017-04-22T02:47:42.641Z,79.6
2017-04-22T02:48:44.476Z,81
2017-04-22T02:49:46.816Z,79.9
2017-04-22T02:50:49.659Z,81.2
2017-04-22T02:51:52.367Z,80.2
2017-04-22T02:52:54.954Z,79.9
2017-04-22T02:53:57.437Z,80
2017-04-22T02:55:00.279Z,79.7
2017-04-22T02:56:02.618Z,79.2
2017-04-22T02:57:05.457Z,79.9
2017-04-22T02:58:07.960Z,80.7
2017-04-22T02:59:11.363Z,81.1
2017-04-22T03:00:13.061Z,82.2
2017-04-22T03:01:15.769Z,79.8
2017-04-22T03:02:18.613Z,80.4
2017-04-22T03:03:21.204Z,78.9
2017-04-22T03:04:24.054Z,78.5
2017-04-22T03:05:26.396Z,79.2
2017-04-22T03:06:29.798Z,80.5
2017-04-22T03:07:31.641Z,78.9
2017-04-22T03:08:34.731Z,80.1
2017-04-22T03:09:37.631Z,79.1
2017-04-22T03:10:39.470Z,79.8
2017-04-22T03:11:42.309Z,79.9
2017-04-22T03:12:44.648Z,80
2017-04-22T03:13:48.355Z,79.7
2017-04-22T03:14:50.194Z,80.6
2017-04-22T03:15:52.396Z,80.7
2017-04-22T03:16:55.104Z,80.2
2017-04-22T03:17:57.679Z,80.2
2017-04-22T03:19:00.829Z,81.4
2017-04-22T03:20:03.172Z,80.8
2017-04-22T03:21:05.881Z,80.1
2017-04-22T03:22:08.225Z,80.2
2017-04-22T03:24:13.777Z,81.1
2017-04-22T03:25:16.691Z,81.3
2017-04-22T03:26:19.027Z,81.4
2017-04-22T03:27:21.099Z,81.1
2017-04-22T03:28:23.936Z,80.8
2017-04-22T03:29:27.123Z,80.4
2017-04-22T03:30:29.458Z,81.3
2017-04-22T03:31:31.665Z,80.8
2017-04-22T03:33:37.145Z,81
2017-04-22T03:34:40.291Z,81.1
2017-04-22T03:35:42.633Z,79.9
2017-04-22T03:36:45.529Z,81.3
2017-04-22T03:37:48.441Z,81.8
2017-04-22T03:38:50.274Z,80.8
2017-04-22T03:39:53.341Z,81.1
2017-04-22T03:40:55.551Z,80.9
2017-04-22T03:41:57.892Z,80.6
2017-04-22T03:43:00.732Z,81.7
2017-04-22T03:44:03.569Z,79.1
2017-04-22T03:45:06.159Z,80.2
2017-04-22T03:46:08.501Z,78.7
2017-04-22T03:48:13.759Z,77.9
2017-04-22T03:49:16.600Z,77.9
2017-04-22T03:50:19.239Z,78.4
2017-04-22T03:51:21.578Z,78.7
2017-04-22T03:52:24.288Z,77.2
2017-04-22T03:53:26.684Z,77.2
2017-04-22T03:54:29.527Z,76.5
2017-04-22T03:55:32.688Z,76.6
2017-04-22T03:56:35.029Z,76.9
2017-04-22T03:58:39.767Z,76.8
2017-04-22T03:59:42.611Z,76.1
2017-04-22T04:00:45.761Z,77.7
2017-04-22T04:01:47.964Z,77.4
2017-04-22T04:02:50.545Z,78.1
2017-04-22T04:03:52.953Z,78.7
2017-04-22T04:04:55.793Z,78.2
2017-04-22T04:05:58.669Z,77
2017-04-22T04:07:00.874Z,76
2017-04-22T04:08:03.714Z,76.6
2017-04-22T04:09:06.049Z,75.4
2017-04-22T04:10:08.890Z,75.5
2017-04-22T04:11:11.851Z,75.7
2017-04-22T04:12:14.197Z,75.1
2017-04-22T04:13:16.541Z,74.7
2017-04-22T04:14:19.385Z,74.1
2017-04-22T04:15:21.721Z,74.8
2017-04-22T04:16:24.678Z,73.4
2017-04-22T04:17:27.079Z,74.8
2017-04-22T04:18:29.928Z,74.3
2017-04-22T04:19:32.295Z,74.3
2017-04-22T04:20:35.137Z,74.5
2017-04-22T04:21:37.650Z,74.7
2017-04-22T04:22:39.989Z,74.1
2017-04-22T04:23:42.831Z,74.9
2017-04-22T04:24:45.540Z,74
2017-04-22T04:25:47.883Z,74
2017-04-22T04:26:51.029Z,73.9
2017-04-22T04:28:55.770Z,73.8
2017-04-22T04:29:58.611Z,74.4
2017-04-22T04:31:00.950Z,75.2
2017-04-22T04:32:03.960Z,75.1
2017-04-22T04:33:06.164Z,75.2
2017-04-22T04:34:09.005Z,74.7
2017-04-22T04:35:11.371Z,75.7
2017-04-22T04:36:13.944Z,74.4
2017-04-22T04:37:17.087Z,74.3
2017-04-22T04:38:19.424Z,73.9
2017-04-22T04:39:21.765Z,74.6
2017-04-22T04:40:24.607Z,75
2017-04-22T04:41:27.316Z,74.2
2017-04-22T04:42:29.955Z,75.1
2017-04-22T04:43:32.294Z,74.6
2017-04-22T04:44:35.136Z,74.6
2017-04-22T04:46:40.394Z,75.7
2017-04-22T04:47:43.037Z,74.6
2017-04-22T04:48:45.250Z,75
2017-04-22T04:50:50.496Z,75.9
2017-04-22T04:51:53.342Z,74.3
2017-04-22T04:52:55.934Z,74.2
2017-04-22T04:53:58.774Z,74.3
2017-04-22T04:55:01.113Z,74.4
2017-04-22T04:56:03.951Z,74.7
2017-04-22T04:57:06.291Z,75.5
2017-04-22T04:58:09.435Z,75
2017-04-22T04:59:11.777Z,74.1
2017-04-22T05:00:14.120Z,74.7
2017-04-22T05:01:16.968Z,74.7
2017-04-22T05:02:19.309Z,74.9
2017-04-22T05:03:22.674Z,75.2
2017-04-22T05:04:24.511Z,74
2017-04-22T05:05:27.352Z,74.2
2017-04-22T05:06:29.692Z,73.7
2017-04-22T05:07:32.536Z,73.9
2017-04-22T05:08:35.179Z,73.3
2017-04-22T05:09:37.524Z,73.3
2017-04-22T05:10:40.234Z,74.4
2017-04-22T05:11:43.073Z,74.2
2017-04-22T05:12:45.421Z,73.4
2017-04-22T05:13:48.446Z,73.5
2017-04-22T05:14:50.838Z,73.1
2017-04-22T05:15:53.137Z,73.7
2017-04-22T05:16:55.983Z,73.8
2017-04-22T05:17:58.750Z,74.6
2017-04-22T05:19:01.341Z,74
2017-04-22T05:20:03.681Z,74.4
2017-04-22T05:21:06.522Z,74.8
2017-04-22T05:22:08.944Z,72.4
2017-04-22T05:23:11.660Z,73.3
2017-04-22T05:24:14.304Z,74
2017-04-22T05:25:17.199Z,73.4
2017-04-22T05:26:19.534Z,72.7
2017-04-22T05:27:21.759Z,73.4
2017-04-22T05:28:24.623Z,73
2017-04-22T05:29:27.423Z,72.1
2017-04-22T05:30:29.769Z,71.4
2017-04-22T05:31:32.618Z,71.6
2017-04-22T05:32:34.956Z,71.6
2017-04-22T05:33:37.665Z,71.6
2017-04-22T05:34:40.869Z,71.7
2017-04-22T05:35:42.870Z,72.1
2017-04-22T05:36:45.576Z,72.2
2017-04-22T05:37:47.915Z,71.7
2017-04-22T05:38:50.755Z,72.3
2017-04-22T05:39:53.407Z,73.2
2017-04-22T05:40:55.985Z,72.2
2017-04-22T05:41:58.326Z,71.8
2017-04-22T05:43:01.034Z,71.3
2017-04-22T05:44:03.743Z,71.8
2017-04-22T05:45:06.397Z,72.1
2017-04-22T05:46:08.603Z,71.6
2017-04-22T05:47:11.387Z,71.6
2017-04-22T05:48:14.099Z,71.9
2017-04-22T05:49:16.949Z,72.7
2017-04-22T05:50:19.651Z,71.3
2017-04-22T05:51:21.986Z,70
2017-04-22T05:52:24.327Z,70.7
2017-04-22T05:53:27.188Z,71.2
2017-04-22T05:54:29.439Z,71
2017-04-22T05:55:32.452Z,71.6
2017-04-22T05:56:35.158Z,70.8
2017-04-22T05:57:37.502Z,71.1
2017-04-22T05:58:40.350Z,70.8
2017-04-22T05:59:42.692Z,71
2017-04-22T06:00:45.836Z,70.6
2017-04-22T06:01:48.176Z,69.9
2017-04-22T06:02:50.517Z,70.5
2017-04-22T06:03:53.366Z,70.2
2017-04-22T06:04:55.709Z,69.1
2017-04-22T06:05:58.781Z,69.8
2017-04-22T06:07:00.985Z,70.5
2017-04-22T06:08:03.832Z,70.9
2017-04-22T06:09:06.239Z,69.6
2017-04-22T06:10:08.944Z,69.9
2017-04-22T06:11:11.449Z,67.6
2017-04-22T06:12:14.165Z,68.6
2017-04-22T06:13:16.504Z,67.9
2017-04-22T06:14:19.344Z,68.1
2017-04-22T06:15:21.683Z,69.3
2017-04-22T06:16:24.780Z,68.4
2017-04-22T06:17:27.120Z,67.9
2017-04-22T06:18:29.464Z,67.9
2017-04-22T06:19:32.309Z,68.1
2017-04-22T06:20:34.648Z,67.1
2017-04-22T06:21:37.802Z,66
2017-04-22T06:22:40.174Z,66.2
2017-04-22T06:23:42.520Z,66.3
2017-04-22T06:24:45.367Z,65.5
2017-04-22T06:25:47.702Z,66.1
2017-04-22T06:26:50.794Z,66.5
2017-04-22T06:27:53.000Z,67.2
2017-04-22T06:28:56.056Z,67.7
2017-04-22T06:29:58.400Z,65.4
2017-04-22T06:31:00.746Z,66.6
2017-04-22T06:32:03.761Z,66.4
2017-04-22T06:33:05.970Z,67.3
2017-04-22T06:34:08.810Z,65.6
2017-04-22T06:35:11.157Z,65.6
2017-04-22T06:36:13.999Z,65.1
2017-04-22T06:37:16.645Z,65.9
2017-04-22T06:38:18.994Z,66
2017-04-22T06:39:21.701Z,65.8
2017-04-22T06:40:24.273Z,65.5
2017-04-22T06:41:26.984Z,64.3
2017-04-22T06:42:29.574Z,64.3
2017-04-22T06:44:34.831Z,63.7
2017-04-22T06:45:37.239Z,64.5
2017-04-22T06:46:39.947Z,63.7
2017-04-22T06:47:42.829Z,62.3
2017-04-22T06:48:45.170Z,61.9
2017-04-22T06:49:48.016Z,58.9
2017-04-22T06:50:50.356Z,58.7
2017-04-22T06:51:53.304Z,58.7
2017-04-22T06:52:55.923Z,60
2017-04-22T06:53:58.271Z,60.5
2017-04-22T06:55:01.119Z,60.6
2017-04-22T06:56:03.455Z,61.2
2017-04-22T06:57:06.162Z,61.1
2017-04-22T06:58:08.751Z,61.2
2017-04-22T06:59:11.099Z,61.6
2017-04-22T07:00:13.940Z,61.7
2017-04-22T07:01:16.787Z,62.3
2017-04-22T07:02:19.130Z,62.8
2017-04-22T07:03:22.280Z,62.2
2017-04-22T07:04:24.118Z,63.3
2017-04-22T07:05:26.957Z,64.1
2017-04-22T07:06:29.841Z,63.8
2017-04-22T07:07:32.035Z,63.6
2017-04-22T07:08:35.049Z,63.4
2017-04-22T07:09:37.394Z,61.8
2017-04-22T07:10:40.237Z,60.8
2017-04-22T07:11:42.570Z,61.4
2017-04-22T07:12:45.415Z,60.5
2017-04-22T07:13:48.062Z,60.3
2017-04-22T07:14:50.282Z,59.6
2017-04-22T07:15:52.991Z,59
2017-04-22T07:16:55.838Z,60.3
2017-04-22T07:17:58.191Z,59
2017-04-22T07:19:01.339Z,58.3
2017-04-22T07:20:03.679Z,57.5
2017-04-22T07:21:06.021Z,58
2017-04-22T07:22:09.013Z,59.1
2017-04-22T07:23:11.366Z,58.8
2017-04-22T07:24:14.517Z,56.8
2017-04-22T07:25:16.364Z,57.6
2017-04-22T07:26:19.074Z,57.4
2017-04-22T07:27:21.915Z,55.5
2017-04-22T07:28:24.180Z,55.6
2017-04-22T07:29:27.514Z,55.2
2017-04-22T07:30:29.854Z,54.8
2017-04-22T07:31:32.191Z,56.5
2017-04-22T07:32:35.031Z,55.7
2017-04-22T07:33:37.378Z,56.1
2017-04-22T07:34:40.522Z,56
2017-04-22T07:35:42.859Z,55.4
2017-04-22T07:36:45.204Z,54
2017-04-22T07:37:48.615Z,54.7
2017-04-22T07:39:53.611Z,53.2
2017-04-22T07:40:55.594Z,54.8
2017-04-22T07:41:58.437Z,54.3
2017-04-22T07:43:01.287Z,55.5
2017-04-22T07:44:03.492Z,54.9
2017-04-22T07:45:07.058Z,56.1
2017-04-22T07:46:08.893Z,55.9
2017-04-22T07:47:11.604Z,56.7
2017-04-22T07:48:13.944Z,57.9
2017-04-22T07:49:16.792Z,57.2
2017-04-22T07:50:19.939Z,57
2017-04-22T07:51:22.276Z,57
2017-04-22T07:52:24.619Z,57.4
2017-04-22T07:53:27.457Z,57.9
2017-04-22T07:54:30.045Z,58.4
2017-04-22T07:55:32.638Z,58.3
2017-04-22T07:56:34.848Z,59
2017-04-22T07:57:37.697Z,58
2017-04-22T07:58:40.541Z,58.4
2017-04-22T07:59:42.886Z,58.8
2017-04-22T08:00:45.894Z,58.6
2017-04-22T08:01:48.232Z,59.2
2017-04-22T08:02:50.445Z,58.6
2017-04-22T08:03:53.358Z,58.3
2017-04-22T08:04:56.202Z,58.1
2017-04-22T08:05:58.845Z,58.7
2017-04-22T08:07:01.184Z,58.2
2017-04-22T08:08:04.030Z,58
2017-04-22T08:09:06.374Z,57.5
2017-04-22T08:10:09.227Z,58.1
2017-04-22T08:11:11.871Z,57.8
2017-04-22T08:12:14.219Z,57.4
2017-04-22T08:13:17.058Z,57
2017-04-22T08:14:19.396Z,57.4
2017-04-22T08:16:24.950Z,55.8
2017-04-22T08:17:27.292Z,56.7
2017-04-22T08:18:30.143Z,56.5
2017-04-22T08:19:32.484Z,57.2
2017-04-22T08:20:35.327Z,57.8
2017-04-22T08:21:37.964Z,58.5
2017-04-22T08:22:40.304Z,57.3
2017-04-22T08:23:43.150Z,54.5
2017-04-22T08:24:45.498Z,53.9
2017-04-22T08:25:48.343Z,55
2017-04-22T08:26:51.486Z,53.8
2017-04-22T08:27:53.697Z,53.4
2017-04-22T08:28:56.041Z,53.9
2017-04-22T08:29:58.891Z,54.4
2017-04-22T08:31:01.237Z,54.5
2017-04-22T08:32:04.381Z,54.6
2017-04-22T08:33:06.723Z,55.7
2017-04-22T08:34:09.062Z,54.4
2017-04-22T08:35:11.903Z,54.5
2017-04-22T08:36:14.476Z,55.6
2017-04-22T08:37:17.621Z,55.7
2017-04-22T08:38:19.853Z,55.5
2017-04-22T08:39:22.197Z,55.1
2017-04-22T08:40:25.051Z,53.8
2017-04-22T08:41:27.761Z,54.5
2017-04-22T08:42:30.405Z,54.3
2017-04-22T08:43:32.744Z,52.8
2017-04-22T08:44:35.600Z,52.6
2017-04-22T08:45:37.944Z,53.3
2017-04-22T08:46:40.788Z,52.4
2017-04-22T08:47:43.433Z,53.5
2017-04-22T08:48:45.771Z,53.2
2017-04-22T08:49:48.616Z,53.6
2017-04-22T08:50:56.697Z,54.3
2017-04-22T08:51:53.737Z,53.2
2017-04-22T08:52:56.879Z,52.3
2017-04-22T08:53:59.226Z,53.2
2017-04-22T08:55:01.570Z,53.6
2017-04-22T08:56:04.411Z,53.5
2017-04-22T08:57:06.755Z,52.5
2017-04-22T08:58:09.869Z,53.7
2017-04-22T08:59:12.214Z,52
2017-04-22T09:00:14.557Z,53.7
2017-04-22T09:01:17.399Z,52.2
2017-04-22T09:02:20.111Z,53
2017-04-22T09:04:25.604Z,53.6
2017-04-22T09:05:27.948Z,54.2
2017-04-22T09:06:30.290Z,53.3
2017-04-22T09:07:33.135Z,54.5
2017-04-22T09:08:35.475Z,53.6
2017-04-22T09:09:38.570Z,54.8
2017-04-22T09:10:40.912Z,54.5
2017-04-22T09:11:43.254Z,54
2017-04-22T09:12:46.098Z,53.4
2017-04-22T09:13:48.944Z,53.6
2017-04-22T09:14:51.590Z,53
2017-04-22T09:15:53.935Z,53
2017-04-22T09:16:56.784Z,53.6
2017-04-22T09:17:59.129Z,53.3
2017-04-22T09:19:01.978Z,53.8
2017-04-22T09:20:04.480Z,53.7
2017-04-22T09:21:06.882Z,53.7
2017-04-22T09:22:09.730Z,53.8
2017-04-22T09:23:12.069Z,53.9
2017-04-22T09:24:14.654Z,54.5
2017-04-22T09:25:17.802Z,54.7
2017-04-22T09:26:20.145Z,54.6
2017-04-22T09:27:22.994Z,55.4
2017-04-22T09:28:25.330Z,55.1
2017-04-22T09:29:28.176Z,54.5
2017-04-22T09:30:30.822Z,55.4
2017-04-22T09:31:33.031Z,55.6
2017-04-22T09:33:38.278Z,56.1
2017-04-22T09:34:40.991Z,57.4
2017-04-22T09:35:44.136Z,56.7
2017-04-22T09:36:46.480Z,56.9
2017-04-22T09:37:48.826Z,57.3
2017-04-22T09:38:51.677Z,57.5
2017-04-22T09:39:54.016Z,57.8
2017-04-22T09:40:56.890Z,57.2
2017-04-22T09:41:59.230Z,57.6
2017-04-22T09:43:02.074Z,57.5
2017-04-22T09:44:04.415Z,57.1
2017-04-22T09:45:07.122Z,56.5
2017-04-22T09:46:10.271Z,55.9
2017-04-22T09:47:12.615Z,56.7
2017-04-22T09:48:15.214Z,57.3
2017-04-22T09:49:17.721Z,57.9
2017-04-22T09:50:20.064Z,58.8
2017-04-22T09:51:23.212Z,58.3
2017-04-22T09:52:25.561Z,57.7
2017-04-22T09:53:28.265Z,57.6
2017-04-22T09:55:33.385Z,58
2017-04-22T09:56:36.484Z,57.1
2017-04-22T09:57:38.825Z,55.9
2017-04-22T09:58:41.168Z,55.3
2017-04-22T09:59:43.744Z,55.6
2017-04-22T10:00:46.590Z,55.4
2017-04-22T10:01:49.229Z,55.6
2017-04-22T10:02:51.570Z,55.4
2017-04-22T10:03:54.033Z,53.5
2017-04-22T10:04:57.172Z,54.1
2017-04-22T10:05:59.513Z,53.3
2017-04-22T10:07:02.658Z,52.1
2017-04-22T10:08:04.994Z,52.1
2017-04-22T10:09:07.337Z,50.8
2017-04-22T10:10:10.182Z,50
2017-04-22T10:11:12.526Z,50.3
2017-04-22T10:12:15.683Z,49.5
2017-04-22T10:13:18.024Z,49.9
2017-04-22T10:14:20.372Z,50
2017-04-22T10:15:23.217Z,50.2
2017-04-22T10:16:25.663Z,50.7
2017-04-22T10:17:28.626Z,50.8
2017-04-22T10:18:30.964Z,51.9
2017-04-22T10:19:33.808Z,52
2017-04-22T10:20:36.146Z,51.5
2017-04-22T10:21:39.024Z,52.1
2017-04-22T10:22:41.621Z,51.9
2017-04-22T10:23:43.966Z,52
2017-04-22T10:24:46.674Z,51.1
2017-04-22T10:25:49.516Z,50.4
2017-04-22T10:26:52.047Z,47.6
2017-04-22T10:27:55.156Z,47.7
2017-04-22T10:28:57.510Z,48.1
2017-04-22T10:29:59.854Z,46.8
2017-04-22T10:31:02.563Z,46
2017-04-22T10:32:05.405Z,45.6
2017-04-22T10:33:07.997Z,44.8
2017-04-22T10:34:10.351Z,43.8
2017-04-22T10:35:13.054Z,44.8
2017-04-22T10:36:15.894Z,45.8
2017-04-22T10:37:18.098Z,44.1
2017-04-22T10:38:21.427Z,44.9
2017-04-22T10:39:23.771Z,45.2
2017-04-22T10:40:26.109Z,46.4
2017-04-22T10:41:28.955Z,45.3
2017-04-22T10:42:31.296Z,46.5
2017-04-22T10:43:34.439Z,46.1
2017-04-22T10:44:36.782Z,45.7
2017-04-22T10:45:39.126Z,45.1
2017-04-22T10:46:41.830Z,44.9
2017-04-22T10:47:44.681Z,43.4
2017-04-22T10:48:47.271Z,42.7
2017-04-22T10:49:50.115Z,43.1
2017-04-22T10:50:52.317Z,42.1
2017-04-22T10:51:55.160Z,41.9
2017-04-22T10:52:57.529Z,42.2
2017-04-22T10:54:00.724Z,42.5
2017-04-22T10:55:03.066Z,41.3
2017-04-22T10:56:05.910Z,42.3
2017-04-22T10:57:08.248Z,43.6
2017-04-22T10:59:13.658Z,43.2
2017-04-22T11:00:15.997Z,44.5
2017-04-22T11:01:18.725Z,44.8
2017-04-22T11:02:21.574Z,45.2
2017-04-22T11:03:23.919Z,45.9
2017-04-22T11:04:27.072Z,45.7
2017-04-22T11:05:29.463Z,45
2017-04-22T11:06:32.069Z,45.7
2017-04-22T11:07:34.411Z,45.2
2017-04-22T11:08:37.254Z,45.3
2017-04-22T11:09:40.259Z,45.3
2017-04-22T11:10:42.600Z,44.4
2017-04-22T11:11:44.939Z,44.1
2017-04-22T11:12:47.781Z,44.5
2017-04-22T11:13:50.134Z,42.8
2017-04-22T11:14:53.225Z,43.9
2017-04-22T11:15:55.562Z,43.5
2017-04-22T11:16:58.413Z,42.2
2017-04-22T11:18:00.787Z,41
2017-04-22T11:19:03.508Z,41.6
2017-04-22T11:20:06.601Z,41.6
2017-04-22T11:21:08.944Z,40.2
2017-04-22T11:23:14.060Z,41.3
2017-04-22T11:24:16.912Z,41.1
2017-04-22T11:25:19.556Z,41.7
2017-04-22T11:26:21.910Z,41.1
2017-04-22T11:27:24.620Z,40
2017-04-22T11:28:27.462Z,40.1
2017-04-22T11:29:29.803Z,41.3
2017-04-22T11:30:32.898Z,41.5
2017-04-22T11:31:34.928Z,42.6
2017-04-22T11:32:37.636Z,44.3
2017-04-22T11:33:40.480Z,44.7
2017-04-22T11:34:42.824Z,45.1
2017-04-22T11:35:45.832Z,45.8
2017-04-22T11:36:48.175Z,45
2017-04-22T11:37:51.016Z,43.7
2017-04-22T11:38:53.361Z,43.6
2017-04-22T11:39:56.245Z,44.4
2017-04-22T11:40:59.339Z,44.3
2017-04-22T11:43:04.091Z,44.2
2017-04-22T11:44:06.723Z,43.9
2017-04-22T11:46:12.459Z,42.5
2017-04-22T11:47:14.667Z,41.9
2017-04-22T11:48:17.372Z,42.3
2017-04-22T11:49:19.715Z,41.7
2017-04-22T11:50:22.564Z,42.3
2017-04-22T11:51:25.211Z,41.4
2017-04-22T11:52:28.060Z,42.5
2017-04-22T11:53:30.397Z,43.1
2017-04-22T11:54:33.249Z,42.6
2017-04-22T11:55:35.723Z,42.5
2017-04-22T11:56:38.871Z,40.7
2017-04-22T11:57:41.089Z,41.9
2017-04-22T11:58:43.454Z,41.9
2017-04-22T12:00:48.898Z,41.7
2017-04-22T12:01:52.045Z,42
2017-04-22T12:02:54.393Z,41.8
2017-04-22T12:03:56.739Z,40.5
2017-04-22T12:04:59.586Z,38.4
2017-04-22T12:06:02.103Z,37.7
2017-04-22T12:07:05.246Z,39
2017-04-22T12:08:07.584Z,39.7
2017-04-22T12:09:10.116Z,39.8
2017-04-22T12:10:12.324Z,39.6
2017-04-22T12:11:15.434Z,38.3
2017-04-22T12:12:17.890Z,38.5
2017-04-22T12:13:20.735Z,37.9
2017-04-22T12:14:22.941Z,38.5
2017-04-22T12:15:25.782Z,39.3
2017-04-22T12:16:28.439Z,37.5
2017-04-22T12:17:31.535Z,38.1
2017-04-22T12:18:33.871Z,37.2
2017-04-22T12:19:36.209Z,37.6
2017-04-22T12:20:39.067Z,37.9
2017-04-22T12:21:41.418Z,37.6
2017-04-22T12:22:44.510Z,37.6
2017-04-22T12:23:46.854Z,37.9
2017-04-22T12:24:49.698Z,38.1
2017-04-22T12:25:52.034Z,37.4
2017-04-22T12:26:54.893Z,37.3
2017-04-22T12:27:57.541Z,37.7
2017-04-22T12:29:00.252Z,37.8
2017-04-22T12:30:02.596Z,38.6
2017-04-22T12:31:05.437Z,38.8
2017-04-22T12:32:07.642Z,39.4
2017-04-22T12:33:11.165Z,39.1
2017-04-22T12:34:13.279Z,38.8
2017-04-22T12:35:16.126Z,39.4
2017-04-22T12:36:18.466Z,39.6
2017-04-22T12:37:21.314Z,39.5
2017-04-22T12:38:23.960Z,39
2017-04-22T12:39:26.355Z,38.8
2017-04-22T12:40:29.197Z,39.4
2017-04-22T12:41:31.541Z,39.9
2017-04-22T12:42:34.265Z,39.5
2017-04-22T12:43:37.412Z,39
2017-04-22T12:44:39.756Z,39.3
2017-04-22T12:45:42.099Z,39.1
2017-04-22T12:46:44.804Z,39
2017-04-22T12:47:47.654Z,39.7
2017-04-22T12:48:50.335Z,40.4
2017-04-22T12:49:52.682Z,40.1
2017-04-22T12:50:55.548Z,40
2017-04-22T12:51:57.890Z,40
2017-04-22T12:53:00.734Z,39.6
2017-04-22T12:54:03.834Z,40
2017-04-22T12:55:06.738Z,39
2017-04-22T12:56:08.569Z,38.8
2017-04-22T12:57:11.282Z,38.5
2017-04-22T12:58:14.121Z,40
2017-04-22T12:59:16.712Z,40.2
2017-04-22T13:00:19.287Z,40.5
2017-04-22T13:01:22.131Z,40.7
2017-04-22T13:02:24.473Z,41.2
2017-04-22T13:03:27.318Z,41.4
2017-04-22T13:04:30.026Z,42
2017-04-22T13:05:32.372Z,42
2017-04-22T13:06:35.083Z,41.3
2017-04-22T13:07:37.929Z,40.2
2017-04-22T13:08:40.307Z,40.8
2017-04-22T13:09:43.408Z,40.9
2017-04-22T13:10:45.754Z,38.3
2017-04-22T13:11:48.092Z,37.1
2017-04-22T13:12:50.939Z,37.7
2017-04-22T13:13:53.993Z,37.9
2017-04-22T13:14:56.599Z,38.1
2017-04-22T13:15:58.810Z,38.7
2017-04-22T13:17:01.703Z,39.8
2017-04-22T13:18:04.043Z,40.2
2017-04-22T13:19:06.895Z,41.6
2017-04-22T13:20:09.555Z,41.7
2017-04-22T13:21:11.759Z,42
2017-04-22T13:22:14.465Z,42.2
2017-04-22T13:23:17.444Z,42.3
2017-04-22T13:24:19.783Z,43.2
2017-04-22T13:25:22.887Z,42.4
2017-04-22T13:26:25.229Z,42.1
2017-04-22T13:27:28.075Z,42.2
2017-04-22T13:28:30.784Z,42.4
2017-04-22T13:29:33.124Z,41.6
2017-04-22T13:30:36.263Z,41.6
2017-04-22T13:31:38.467Z,40.2
2017-04-22T13:32:41.310Z,40.1
2017-04-22T13:33:43.651Z,40.5
2017-04-22T13:34:46.358Z,40.8
2017-04-22T13:35:49.503Z,41.1
2017-04-22T13:36:51.848Z,39.8
2017-04-22T13:37:54.187Z,39.9
2017-04-22T13:38:57.029Z,39.5
2017-04-22T13:39:59.872Z,38.4
2017-04-22T13:41:02.510Z,37.8
2017-04-22T13:42:04.854Z,38.1
2017-04-22T13:43:07.694Z,38.6
2017-04-22T13:44:10.040Z,38.7
2017-04-22T13:45:12.890Z,38.8
2017-04-22T13:46:15.534Z,39.2
2017-04-22T13:47:18.130Z,38.4
2017-04-22T13:48:20.976Z,39
2017-04-22T13:49:23.320Z,39.2
2017-04-22T13:50:26.166Z,39.2
2017-04-22T13:51:28.821Z,38.8
2017-04-22T13:52:31.167Z,39.4
2017-04-22T13:53:34.006Z,39.4
2017-04-22T13:54:36.864Z,39.8
2017-04-22T13:55:39.203Z,39.8
2017-04-22T13:56:42.397Z,39.9
2017-04-22T13:57:44.735Z,40.3
2017-04-22T13:58:47.134Z,40.2
2017-04-22T13:59:49.979Z,40.4
2017-04-22T14:00:52.320Z,40.7
2017-04-22T14:01:55.518Z,40.6
2017-04-22T14:02:57.860Z,41.2
2017-04-22T14:04:00.198Z,41.3
2017-04-22T14:05:03.043Z,41.3
2017-04-22T14:06:05.753Z,41.8
2017-04-22T14:07:08.899Z,41.6
2017-04-22T14:08:11.243Z,42.2
2017-04-22T14:09:13.589Z,42.5
2017-04-22T14:10:16.165Z,42
2017-04-22T14:11:19.010Z,42
2017-04-22T14:12:21.654Z,41.5
2017-04-22T14:13:23.996Z,40.6
2017-04-22T14:14:26.581Z,40.6
2017-04-22T14:15:29.429Z,41.3
2017-04-22T14:16:32.280Z,41.1
2017-04-22T14:17:35.002Z,41.3
2017-04-22T14:18:37.344Z,41.2
2017-04-22T14:19:40.059Z,42
2017-04-22T14:20:42.912Z,41.2
2017-04-22T14:21:45.257Z,40.6
2017-04-22T14:22:48.351Z,41
2017-04-22T14:23:50.696Z,40.4